Thalassini Niki — 9HA2364 — position and weather

sailwx.info

Track history (hours):
 
Tides and Currents Weather Stations Pressure Air Temp Water Temp Dewpoint Dewpoint Depression Visibility Wind Speed Wind Dir Waves Ship Positions

Thalassini Niki

Last reported at 2018-Jun-20 15:27 UTC. Time now 2018-Jun-20 23:08 UTC.
Position N 39°52' E 121°18'.

Length 196 m; draft 8.5 m.

Type: Cargo ship. MMSI: 248435000.

Date/timePositionNaut miles runAvg speedWind from/ knotsBaromVisibWave heightAir tempDewpointWater temp
2018-Jun-20 15:27N 39°52' E 121°18'3413.3
2018-Jun-20 12:54N 39°27' E 120°48'1414.3
2018-Jun-20 11:56N 39°18' E 120°34'614.3
2018-Jun-20 11:30N 39°14' E 120°28'713.9
2018-Jun-20 11:00N 39°10' E 120°22'913.6
2018-Jun-20 10:21N 39°05' E 120°12'513.4
2018-Jun-20 09:58N 39°02' E 120°07'713.1
2018-Jun-20 09:28N 38°58' E 119°60'812.6
2018-Jun-20 08:49N 38°53' E 119°51'412.7
2018-Jun-20 08:29N 38°52' E 119°46'612.9
2018-Jun-20 08:00N 38°50' E 119°39'712.9
2018-Jun-20 07:30N 38°48' E 119°30'613.1
2018-Jun-20 07:00N 38°47' E 119°22'713.2
2018-Jun-20 06:30N 38°45' E 119°14'713.3
2018-Jun-20 06:00N 38°45' E 119°05'913.2
2018-Jun-20 05:19N 38°46' E 118°54'413.4
2018-Jun-20 05:00N 38°47' E 118°49'713.7
2018-Jun-20 04:29N 38°48' E 118°39'613.7
2018-Jun-20 04:00N 38°48' E 118°31'1513.3
2018-Jun-20 02:52N 38°52' E 118°12'513.1
2018-Jun-20 02:28N 38°54' E 118°07'  
2018-Jun-15 23:19N 38°53' E 118°41'0 0.1
2018-Jun-15 22:58N 38°53' E 118°41'84 6.9
2018-Jun-15 10:45N 38°39' E 120°28'43112.0
2018-Jun-13 22:44N 31°46' E 122°57'613.3
2018-Jun-13 22:18N 31°40' E 122°55'413.0
2018-Jun-13 22:00N 31°37' E 122°54'712.9
2018-Jun-13 21:28N 31°30' E 122°51'613.2
2018-Jun-13 21:00N 31°24' E 122°49'713.7
2018-Jun-13 20:30N 31°17' E 122°47'713.5
2018-Jun-13 20:00N 31°11' E 122°45'711.8
2018-Jun-13 19:25N 31°04' E 122°44'512.7
2018-Jun-13 19:00N 30°59' E 122°41'813.0
2018-Jun-13 18:23N 30°59' E 122°32'613.6
2018-Jun-13 17:57N 31°00' E 122°25'613.5
2018-Jun-13 17:30N 31°02' E 122°19'611.3
2018-Jun-13 17:00N 31°03' E 122°12'612.7
2018-Jun-13 16:30N 31°04' E 122°05'510.8
2018-Jun-13 16:00N 31°06' E 121°59'5 9.6
2018-Jun-13 15:30N 31°08' E 121°54'4 8.8
2018-Jun-13 15:00N 31°11' E 121°50'4 8.0
2018-Jun-13 14:30N 31°14' E 121°47'4 8.1
2018-Jun-13 13:59N 31°17' E 121°44'7311.3
2018-Jun-13 07:30N 32°00' E 120°34'611.9
2018-Jun-13 07:00N 32°02' E 120°28'611.8
2018-Jun-13 06:30N 31°59' E 120°21'  
Track history (hours):
 
Tides and Currents Weather Stations Pressure Air Temp Water Temp Dewpoint Dewpoint Depression Visibility Wind Speed Wind Dir Waves Ship Positions

Thalassini Niki

Last reported at 2018-Jun-20 15:27 UTC. Time now 2018-Jun-20 23:08 UTC.
Position N 39°52' E 121°18'.

Length 196 m; draft 8.5 m.

Type: Cargo ship. MMSI: 248435000.

Date/timePositionNaut miles runAvg speedWind from/ knotsBaromVisibWave heightAir tempDewpointWater temp
2018-Jun-20 15:27N 39°52' E 121°18'3413.3
2018-Jun-20 12:54N 39°27' E 120°48'1414.3
2018-Jun-20 11:56N 39°18' E 120°34'614.3
2018-Jun-20 11:30N 39°14' E 120°28'713.9
2018-Jun-20 11:00N 39°10' E 120°22'913.6
2018-Jun-20 10:21N 39°05' E 120°12'513.4
2018-Jun-20 09:58N 39°02' E 120°07'713.1
2018-Jun-20 09:28N 38°58' E 119°60'812.6
2018-Jun-20 08:49N 38°53' E 119°51'412.7
2018-Jun-20 08:29N 38°52' E 119°46'612.9
2018-Jun-20 08:00N 38°50' E 119°39'712.9
2018-Jun-20 07:30N 38°48' E 119°30'613.1
2018-Jun-20 07:00N 38°47' E 119°22'713.2
2018-Jun-20 06:30N 38°45' E 119°14'713.3
2018-Jun-20 06:00N 38°45' E 119°05'913.2
2018-Jun-20 05:19N 38°46' E 118°54'413.4
2018-Jun-20 05:00N 38°47' E 118°49'713.7
2018-Jun-20 04:29N 38°48' E 118°39'613.7
2018-Jun-20 04:00N 38°48' E 118°31'1513.3
2018-Jun-20 02:52N 38°52' E 118°12'513.1
2018-Jun-20 02:28N 38°54' E 118°07'  
2018-Jun-15 23:19N 38°53' E 118°41'0 0.1
2018-Jun-15 22:58N 38°53' E 118°41'84 6.9
2018-Jun-15 10:45N 38°39' E 120°28'43112.0
2018-Jun-13 22:44N 31°46' E 122°57'613.3
2018-Jun-13 22:18N 31°40' E 122°55'413.0
2018-Jun-13 22:00N 31°37' E 122°54'712.9
2018-Jun-13 21:28N 31°30' E 122°51'613.2
2018-Jun-13 21:00N 31°24' E 122°49'713.7
2018-Jun-13 20:30N 31°17' E 122°47'713.5
2018-Jun-13 20:00N 31°11' E 122°45'711.8
2018-Jun-13 19:25N 31°04' E 122°44'512.7
2018-Jun-13 19:00N 30°59' E 122°41'813.0
2018-Jun-13 18:23N 30°59' E 122°32'613.6
2018-Jun-13 17:57N 31°00' E 122°25'613.5
2018-Jun-13 17:30N 31°02' E 122°19'611.3
2018-Jun-13 17:00N 31°03' E 122°12'612.7
2018-Jun-13 16:30N 31°04' E 122°05'510.8
2018-Jun-13 16:00N 31°06' E 121°59'5 9.6
2018-Jun-13 15:30N 31°08' E 121°54'4 8.8
2018-Jun-13 15:00N 31°11' E 121°50'4 8.0
2018-Jun-13 14:30N 31°14' E 121°47'4 8.1
2018-Jun-13 13:59N 31°17' E 121°44'7311.3
2018-Jun-13 07:30N 32°00' E 120°34'611.9
2018-Jun-13 07:00N 32°02' E 120°28'611.8
2018-Jun-13 06:30N 31°59' E 120°21'  

Dump ship's entire track history